Time;durP1;ratioP1;P1;durP2;ratioP2;P2;SDS_P1;SDS_P2;PMS_P1;PMS_P2;Temp;Humidity;BMP_temperature;BMP_pressure;BME280_temperature;BME280_humidity;BME280_pressure;Samples;Min_cycle;Max_cycle;Signal;HPM_P1;HPM_P2
2023/01/13 00:01:59;;;;;;;1.50;1.15;;;;;;;10.01;100.00;99748.75;5104979;28;20214;-74
2023/01/13 00:04:26;;;;;;;2.80;1.30;;;;;;;10.02;100.00;99747.81;5104396;28;20262;-73
2023/01/13 00:06:53;;;;;;;2.22;0.98;;;;;;;9.99;100.00;99744.41;5106398;28;20228;-74
2023/01/13 00:09:19;;;;;;;2.70;1.10;;;;;;;10.00;100.00;99735.41;5108280;28;20222;-72
2023/01/13 00:11:46;;;;;;;2.10;1.00;;;;;;;10.03;100.00;99772.88;5111286;28;20307;-72
2023/01/13 00:14:14;;;;;;;4.50;1.00;;;;;;;10.00;100.00;99735.41;5109262;28;20260;-73
2023/01/13 00:16:40;;;;;;;2.33;1.02;;;;;;;9.96;100.00;99739.19;5107484;28;20222;-73
2023/01/13 00:19:07;;;;;;;2.05;1.23;;;;;;;9.96;100.00;99734.69;5106547;28;20259;-73
2023/01/13 00:21:34;;;;;;;5.43;1.92;;;;;;;9.92;100.00;99738.47;5108786;28;20227;-73
2023/01/13 00:24:01;;;;;;;2.15;1.15;;;;;;;9.93;100.00;99734.00;5121572;28;20248;-73
2023/01/13 00:26:29;;;;;;;1.80;1.20;;;;;;;9.95;100.00;99729.38;5129102;28;20230;-75
2023/01/13 00:28:58;;;;;;;2.20;1.00;;;;;;;9.93;100.00;99724.09;5127805;28;20199;-72
2023/01/13 00:31:27;;;;;;;1.70;0.90;;;;;;;9.98;100.00;99715.78;5130490;28;20288;-73
2023/01/13 00:33:56;;;;;;;6.03;3.40;;;;;;;9.95;100.00;99715.94;5114299;28;20196;-74
2023/01/13 00:36:23;;;;;;;1.70;0.90;;;;;;;9.98;100.00;99710.41;5106276;28;20216;-73
2023/01/13 00:38:49;;;;;;;2.53;0.90;;;;;;;9.99;100.00;99713.03;5109657;28;20204;-73
2023/01/13 00:41:18;;;;;;;5.78;1.30;;;;;;;9.97;100.00;99716.72;5109835;28;20231;-74
2023/01/13 00:43:44;;;;;;;5.18;1.00;;;;;;;9.99;100.00;99707.63;5108655;28;20255;-74
2023/01/13 00:46:12;;;;;;;3.30;0.97;;;;;;;10.00;100.00;99698.59;5106374;28;20226;-74
2023/01/13 00:48:40;;;;;;;3.00;1.13;;;;;;;10.06;100.00;99699.22;5103502;28;20203;-72
2023/01/13 00:51:10;;;;;;;1.90;0.77;;;;;;;10.05;100.00;99722.56;5105544;28;20206;-73
2023/01/13 00:53:38;;;;;;;1.63;1.05;;;;;;;10.06;100.00;99710.84;5104023;28;20282;-73
2023/01/13 00:56:08;;;;;;;1.65;0.88;;;;;;;10.09;100.00;99729.53;5103845;28;20298;-72
2023/01/13 00:58:35;;;;;;;1.70;1.33;;;;;;;10.12;100.00;99672.84;5101559;28;20200;-74
2023/01/13 01:01:03;;;;;;;4.75;1.00;;;;;;;10.12;100.00;99683.59;5100903;28;20196;-74
2023/01/13 01:03:30;;;;;;;2.60;0.80;;;;;;;10.13;100.00;99676.41;5100330;28;20218;-73
2023/01/13 01:06:04;;;;;;;3.75;1.00;;;;;;;10.12;100.00;99670.16;5101674;28;20299;-73
2023/01/13 01:08:31;;;;;;;2.03;0.90;;;;;;;10.15;100.00;99685.25;5100435;28;20204;-73
2023/01/13 01:11:02;;;;;;;2.45;0.93;;;;;;;10.13;100.00;99669.22;5100000;28;20260;-75
2023/01/13 01:13:29;;;;;;;2.28;0.80;;;;;;;10.13;100.00;99674.59;5102617;28;20219;-73
2023/01/13 01:15:55;;;;;;;2.35;1.15;;;;;;;10.14;100.00;99676.31;5102583;28;20234;-74
2023/01/13 01:18:22;;;;;;;1.50;0.70;;;;;;;10.19;100.00;99673.38;5102784;28;20196;-74
2023/01/13 01:20:48;;;;;;;1.73;0.80;;;;;;;10.22;100.00;99679.47;5102462;28;20287;-72
2023/01/13 01:23:17;;;;;;;1.65;0.80;;;;;;;10.25;100.00;99691.88;5099787;28;20195;-72
2023/01/13 01:25:43;;;;;;;1.48;0.70;;;;;;;10.27;100.00;99681.03;5098533;28;20216;-73
2023/01/13 01:28:10;;;;;;;2.00;0.88;;;;;;;10.28;100.00;99688.16;5100001;28;20268;-73
2023/01/13 01:30:38;;;;;;;1.70;0.90;;;;;;;10.23;100.00;99683.88;5102932;28;20199;-74
2023/01/13 01:33:05;;;;;;;1.55;1.00;;;;;;;10.25;100.00;99701.78;5102594;28;20192;-74
2023/01/13 01:35:32;;;;;;;2.65;0.90;;;;;;;10.32;100.00;99679.84;5102472;28;20202;-74
2023/01/13 01:37:58;;;;;;;1.30;0.70;;;;;;;10.29;100.00;99688.09;5100104;28;20227;-73
2023/01/13 01:40:27;;;;;;;2.35;1.00;;;;;;;10.25;100.00;99697.25;5102655;28;20206;-75
2023/01/13 01:45:38;;;;;;;2.67;0.80;;;;;;;10.19;100.00;99694.91;5103817;28;20226;-74
2023/01/13 01:48:07;;;;;;;1.30;0.75;;;;;;;10.13;100.00;99690.75;5101262;28;20263;-75
2023/01/13 01:50:34;;;;;;;4.10;1.10;;;;;;;10.12;100.00;99712.34;5103107;28;20280;-74
2023/01/13 01:53:08;;;;;;;1.83;1.08;;;;;;;10.13;100.00;99693.44;5101599;28;20276;-74
2023/01/13 01:55:38;;;;;;;4.05;1.00;;;;;;;10.11;100.00;99699.84;5098493;28;20283;-72
2023/01/13 01:58:11;;;;;;;3.47;1.00;;;;;;;10.13;100.00;99682.66;5096747;28;20206;-73
2023/01/13 02:00:37;;;;;;;1.30;0.80;;;;;;;10.16;100.00;99679.81;5098454;28;20291;-74
2023/01/13 02:03:07;;;;;;;2.90;1.10;;;;;;;10.19;100.00;99668.00;5099651;28;20204;-74
2023/01/13 02:05:34;;;;;;;1.80;1.17;;;;;;;10.20;100.00;99670.63;5103782;28;20223;-72
2023/01/13 02:08:01;;;;;;;3.67;1.40;;;;;;;10.22;100.00;99675.88;5104219;28;20589;-72
2023/01/13 02:10:31;;;;;;;1.90;1.10;;;;;;;10.25;100.00;99656.03;5103701;28;20680;-75
2023/01/13 02:13:00;;;;;;;2.38;1.35;;;;;;;10.27;100.00;99670.28;5103761;28;20293;-74
2023/01/13 02:15:35;;;;;;;2.60;0.80;;;;;;;10.29;100.00;99668.38;5103166;28;20196;-75
2023/01/13 02:18:31;;;;;;;3.65;0.90;;;;;;;10.30;100.00;99662.06;5102568;28;20180;-73
2023/01/13 02:21:21;;;;;;;1.30;0.80;;;;;;;10.32;100.00;99660.16;5106836;28;20231;-73
2023/01/13 02:27:34;;;;;;;2.55;0.90;;;;;;;10.28;100.00;99656.72;5097066;28;20238;-73
2023/01/13 02:33:26;;;;;;;1.73;0.70;;;;;;;10.36;100.00;99648.25;5044151;28;20204;-73
2023/01/13 02:35:59;;;;;;;1.92;0.80;;;;;;;10.32;100.00;99646.69;5042976;28;20193;-76
2023/01/13 02:38:31;;;;;;;2.28;0.70;;;;;;;10.37;100.00;99640.09;5039618;28;20192;-74
2023/01/13 02:44:05;;;;;;;1.60;0.90;;;;;;;10.35;100.00;99639.28;5038892;28;20288;-74
2023/01/13 02:44:07;;;;;;;1.73;0.90;;;;;;;10.36;100.00;99643.75;5034211;28;20186;-74
2023/01/13 02:46:41;;;;;;;5.57;0.70;;;;;;;10.38;100.00;99636.44;5041671;28;20229;-72
2023/01/13 02:49:12;;;;;;;2.22;0.70;;;;;;;10.41;100.00;99612.03;5044239;28;20652;-75
2023/01/13 02:51:43;;;;;;;4.20;1.10;;;;;;;10.38;100.00;99619.44;5040322;28;20240;-74
2023/01/13 02:54:14;;;;;;;1.90;0.75;;;;;;;10.46;100.00;99617.16;5038111;28;20204;-75
2023/01/13 02:56:44;;;;;;;2.33;0.90;;;;;;;10.48;100.00;99626.00;5036157;28;20641;-74
2023/01/13 02:59:12;;;;;;;1.30;0.70;;;;;;;10.48;100.00;99620.63;5034492;28;20186;-76
2023/01/13 03:01:40;;;;;;;1.65;0.70;;;;;;;10.50;100.00;99617.88;5037989;28;20202;-76
2023/01/13 03:04:11;;;;;;;1.35;0.80;;;;;;;10.54;100.00;99625.66;5037732;28;20415;-75
2023/01/13 03:06:48;;;;;;;1.27;0.75;;;;;;;10.53;100.00;99615.84;5051394;28;20223;-73
2023/01/13 03:09:22;;;;;;;1.48;0.70;;;;;;;10.53;100.00;99615.84;5096572;28;20238;-74
2023/01/13 03:11:59;;;;;;;1.38;0.65;;;;;;;10.61;100.00;99613.59;5097445;28;20210;-73
2023/01/13 03:14:35;;;;;;;2.05;0.90;;;;;;;10.58;100.00;99607.50;5095870;28;20578;-74
2023/01/13 03:17:25;;;;;;;1.63;0.95;;;;;;;10.58;100.00;99603.00;5094733;28;20237;-75
2023/01/13 03:19:59;;;;;;;1.50;0.60;;;;;;;10.59;100.00;99606.56;5095122;28;20287;-75
2023/01/13 03:22:34;;;;;;;1.83;0.80;;;;;;;10.57;100.00;99606.63;5098024;28;20222;-74
2023/01/13 03:25:07;;;;;;;1.20;0.60;;;;;;;10.60;100.00;99619.06;5095072;28;20223;-72
2023/01/13 03:27:42;;;;;;;1.63;0.70;;;;;;;10.60;100.00;99611.84;5112450;28;20341;-71
2023/01/13 03:30:16;;;;;;;1.73;0.88;;;;;;;10.57;100.00;99600.41;5112036;28;20195;-75
2023/01/13 03:32:47;;;;;;;1.80;0.80;;;;;;;10.53;100.00;99597.00;5112209;28;20229;-73
2023/01/13 03:35:17;;;;;;;2.60;1.00;;;;;;;10.49;100.00;99597.25;5111124;28;20180;-73
2023/01/13 03:37:49;;;;;;;2.13;0.70;;;;;;;10.42;100.00;99597.63;5109789;28;20249;-72
2023/01/13 03:40:20;;;;;;;2.00;0.93;;;;;;;10.34;100.00;99590.97;5111364;28;20204;-72
2023/01/13 03:45:35;;;;;;;1.92;0.80;;;;;;;10.49;100.00;99599.97;5101626;28;20740;-74
2023/01/13 03:48:06;;;;;;;1.40;0.75;;;;;;;10.49;100.00;99586.50;5109292;28;20284;-74
2023/01/13 03:50:38;;;;;;;1.20;0.60;;;;;;;10.55;100.00;99575.38;5115911;28;20211;-74
2023/01/13 03:53:10;;;;;;;1.60;0.70;;;;;;;10.54;100.00;99569.13;5116906;28;20215;-74
2023/01/13 03:55:43;;;;;;;1.33;0.60;;;;;;;10.53;100.00;99578.16;5116884;28;20205;-73
2023/01/13 03:58:14;;;;;;;4.20;0.95;;;;;;;10.59;100.00;99567.03;5113113;28;20180;-74
2023/01/13 04:00:47;;;;;;;1.30;0.65;;;;;;;10.56;100.00;99587.88;5104302;28;20240;-73
2023/01/13 04:03:24;;;;;;;2.20;0.70;;;;;;;10.59;100.00;99577.81;5099641;28;20180;-75
2023/01/13 04:05:58;;;;;;;1.20;0.68;;;;;;;10.58;100.00;99565.31;5099757;28;20246;-74
2023/01/13 04:08:26;;;;;;;2.05;0.60;;;;;;;10.65;100.00;99576.59;5099643;28;20194;-75
2023/01/13 04:10:58;;;;;;;1.20;0.63;;;;;;;10.70;100.00;99576.31;5104133;28;20219;-73
2023/01/13 04:13:29;;;;;;;1.73;1.00;;;;;;;10.68;100.00;99562.06;5103709;28;20212;-74
2023/01/13 04:15:56;;;;;;;1.30;0.68;;;;;;;10.70;100.00;99579.88;5100122;28;20234;-73
2023/01/13 04:18:26;;;;;;;1.33;0.70;;;;;;;10.72;100.00;99561.81;5098468;28;20225;-74
2023/01/13 04:20:57;;;;;;;1.92;0.60;;;;;;;10.71;100.00;99554.66;5105910;28;20256;-75
2023/01/13 04:23:24;;;;;;;2.30;0.70;;;;;;;10.68;100.00;99545.91;5102001;28;20271;-74
2023/01/13 04:25:51;;;;;;;1.20;0.65;;;;;;;10.64;100.00;99551.47;5099566;28;20224;-75
2023/01/13 04:28:19;;;;;;;1.25;0.65;;;;;;;10.67;100.00;99541.47;5098771;28;20625;-75
2023/01/13 04:30:46;;;;;;;1.10;0.57;;;;;;;10.67;100.00;99563.88;5098372;28;20768;-73
2023/01/13 04:33:15;;;;;;;1.40;0.70;;;;;;;10.68;100.00;99548.59;5110622;28;20217;-73
2023/01/13 04:35:44;;;;;;;1.55;0.60;;;;;;;10.68;100.00;99543.22;5116025;28;20246;-73
2023/01/13 04:38:13;;;;;;;1.30;0.60;;;;;;;10.70;100.00;99546.69;5114519;28;20290;-73
2023/01/13 04:40:41;;;;;;;1.30;0.70;;;;;;;10.70;100.00;99542.16;5115417;28;20204;-74
2023/01/13 04:43:07;;;;;;;1.23;0.68;;;;;;;10.73;100.00;99539.28;5116103;28;20243;-74
2023/01/13 04:45:35;;;;;;;1.65;0.68;;;;;;;10.71;100.00;99526.88;5108651;28;20577;-73
2023/01/13 04:48:01;;;;;;;1.63;0.63;;;;;;;10.71;100.00;99533.13;5110250;28;20212;-73
2023/01/13 04:50:28;;;;;;;2.00;0.70;;;;;;;10.69;100.00;99520.72;5109204;28;20299;-74
2023/01/13 04:52:56;;;;;;;1.10;0.50;;;;;;;10.73;100.00;99522.28;5107217;28;20287;-74
2023/01/13 04:55:24;;;;;;;1.20;0.60;;;;;;;10.77;100.00;99515.75;5106389;28;20680;-73
2023/01/13 04:57:50;;;;;;;3.03;0.80;;;;;;;10.74;100.00;99507.81;5108374;22;20227;-75
2023/01/13 05:00:20;;;;;;;1.50;0.70;;;;;;;10.75;100.00;99523.91;5094764;28;20218;-75
2023/01/13 05:02:48;;;;;;;1.80;0.80;;;;;;;10.79;100.00;99519.22;5088052;28;20196;-75
2023/01/13 05:05:15;;;;;;;1.30;0.60;;;;;;;10.73;100.00;99538.44;5074387;28;20232;-75
2023/01/13 05:07:42;;;;;;;1.83;0.70;;;;;;;10.57;100.00;99547.41;5073824;28;20291;-75
2023/01/13 05:10:11;;;;;;;1.30;0.70;;;;;;;10.38;100.00;99534.16;5074691;28;20200;-76
2023/01/13 05:18:06;;;;;;;2.38;0.65;;;;;;;10.18;100.00;99554.13;5072790;28;20665;-75
2023/01/13 05:20:32;;;;;;;1.20;0.70;;;;;;;10.13;100.00;99558.91;5074512;28;20197;-75
2023/01/13 05:25:47;;;;;;;3.42;1.33;;;;;;;10.03;100.00;99573.81;5074132;28;20235;-76
2023/01/13 05:28:14;;;;;;;1.80;1.30;;;;;;;9.97;100.00;99568.78;5073297;28;20220;-74
2023/01/13 05:30:43;;;;;;;1.48;0.90;;;;;;;9.96;100.00;99631.59;5074392;28;20204;-74
2023/01/13 05:33:10;;;;;;;1.20;0.60;;;;;;;9.52;100.00;99657.25;5074957;28;20201;-74
2023/01/13 05:35:38;;;;;;;1.55;0.70;;;;;;;8.84;100.00;99662.56;5076262;28;20193;-74
2023/01/13 05:38:04;;;;;;;3.50;0.80;;;;;;;8.62;100.00;99645.78;5073369;28;20272;-74
2023/01/13 05:43:23;;;;;;;1.30;0.60;;;;;;;8.42;100.00;99661.03;5069386;28;20691;-74
2023/01/13 05:45:52;;;;;;;2.00;0.70;;;;;;;8.29;100.00;99667.88;5072888;28;20258;-74
2023/01/13 05:48:21;;;;;;;1.20;0.70;;;;;;;8.29;100.00;99689.34;5070247;28;20209;-74
2023/01/13 05:50:49;;;;;;;1.50;0.70;;;;;;;8.17;100.00;99698.84;5062623;28;20196;-74
2023/01/13 05:53:16;;;;;;;2.53;0.85;;;;;;;8.10;100.00;99698.25;5075995;28;20197;-73
2023/01/13 05:55:43;;;;;;;1.30;0.60;;;;;;;8.14;100.00;99705.22;5057355;28;20284;-74
2023/01/13 05:58:11;;;;;;;3.22;0.60;;;;;;;8.14;100.00;99693.63;5068094;28;20221;-74
2023/01/13 06:00:40;;;;;;;2.10;0.65;;;;;;;8.09;100.00;99693.81;5074211;28;20201;-75
2023/01/13 06:03:07;;;;;;;2.00;0.70;;;;;;;8.10;100.00;99686.66;5071910;28;20204;-74
2023/01/13 06:05:34;;;;;;;2.33;0.70;;;;;;;8.10;100.00;99682.16;5061501;28;20228;-73
2023/01/13 06:08:02;;;;;;;1.38;0.60;;;;;;;8.10;100.00;99675.94;5065312;28;20227;-74
2023/01/13 06:10:29;;;;;;;7.47;0.80;;;;;;;8.14;100.00;99677.53;5067918;28;20626;-74
2023/01/13 06:12:56;;;;;;;1.67;0.80;;;;;;;8.11;100.00;99674.97;5057009;28;20203;-75
2023/01/13 06:15:24;;;;;;;5.65;0.80;;;;;;;8.11;100.00;99673.16;5061809;28;20197;-74
2023/01/13 06:17:52;;;;;;;1.35;0.60;;;;;;;8.16;100.00;99681.00;5072265;28;20588;-73
2023/01/13 06:20:20;;;;;;;2.13;0.70;;;;;;;8.16;100.00;99672.94;5064120;28;20225;-74
2023/01/13 06:22:48;;;;;;;2.15;0.80;;;;;;;8.20;100.00;99671.88;5061991;28;20707;-73
2023/01/13 06:25:22;;;;;;;2.63;0.80;;;;;;;8.20;100.00;99677.22;5058270;28;20197;-73
2023/01/13 06:27:49;;;;;;;1.58;0.73;;;;;;;8.16;100.00;99678.31;5071805;28;20220;-73
2023/01/13 06:30:16;;;;;;;2.42;0.70;;;;;;;8.21;100.00;99680.78;5072139;28;20553;-73
2023/01/13 06:32:46;;;;;;;1.45;0.73;;;;;;;8.22;100.00;99706.66;5072558;28;20200;-73
2023/01/13 06:35:18;;;;;;;2.20;0.80;;;;;;;8.20;100.00;99681.72;5072768;28;20196;-74
2023/01/13 06:37:47;;;;;;;1.42;0.70;;;;;;;8.25;100.00;99702.00;5071853;28;20587;-73
2023/01/13 06:40:14;;;;;;;2.03;0.80;;;;;;;8.30;100.00;99691.97;5071151;28;20203;-73
2023/01/13 06:45:23;;;;;;;3.17;0.80;;;;;;;8.25;100.00;99659.09;5005641;28;20213;-73
2023/01/13 06:47:50;;;;;;;11.40;7.47;;;;;;;8.34;100.00;99668.53;5004057;28;20245;-70
2023/01/13 06:50:18;;;;;;;41.50;25.75;;;;;;;8.79;100.00;99639.56;5004352;28;20622;-72
2023/01/13 06:52:45;;;;;;;4.43;1.42;;;;;;;8.58;100.00;99638.81;5013983;28;20213;-73
2023/01/13 06:55:11;;;;;;;2.10;1.17;;;;;;;8.43;100.00;99654.69;5012997;28;20217;-72
2023/01/13 06:57:50;;;;;;;4.30;1.23;;;;;;;8.36;100.00;99669.31;5010755;28;20230;-73
2023/01/13 07:00:17;;;;;;;5.05;1.17;;;;;;;8.38;100.00;99683.53;5011019;28;20206;-75
2023/01/13 07:02:44;;;;;;;1.95;0.93;;;;;;;8.39;100.00;99685.28;5010060;28;20701;-73
2023/01/13 07:05:10;;;;;;;2.78;0.93;;;;;;;8.38;100.00;99680.00;5010575;28;20211;-72
2023/01/13 07:07:39;;;;;;;2.85;0.85;;;;;;;8.33;100.00;99681.06;4998742;28;20219;-73
2023/01/13 07:10:08;;;;;;;1.70;0.70;;;;;;;8.30;100.00;99680.38;5010211;28;20205;-74
2023/01/13 07:15:17;;;;;;;1.38;0.73;;;;;;;8.31;100.00;99687.47;5001655;28;20207;-74
2023/01/13 07:15:22;;;;;;;2.40;0.77;;;;;;;8.27;100.00;99683.19;4997743;28;20677;-74
2023/01/13 07:17:48;;;;;;;1.20;0.70;;;;;;;8.23;100.00;99681.56;5001176;28;20222;-74
2023/01/13 07:20:16;;;;;;;2.70;1.25;;;;;;;8.16;100.00;99678.31;5001159;28;20446;-75
2023/01/13 07:22:44;;;;;;;2.55;0.77;;;;;;;8.17;100.00;99693.47;5032360;28;20203;-75
2023/01/13 07:25:11;;;;;;;1.35;0.60;;;;;;;8.14;100.00;99689.13;5066212;28;20693;-75
2023/01/13 07:27:38;;;;;;;1.70;0.70;;;;;;;8.07;100.00;99706.47;5082017;28;20228;-76
2023/01/13 07:30:06;;;;;;;3.70;0.93;;;;;;;8.11;100.00;99699.13;5069289;28;20291;-75
2023/01/13 07:32:33;;;;;;;1.70;0.65;;;;;;;8.04;100.00;99703.91;5056444;28;20197;-74
2023/01/13 07:35:04;;;;;;;2.38;0.70;;;;;;;8.02;100.00;99700.41;5057071;28;20207;-76
2023/01/13 07:37:31;;;;;;;1.75;1.00;;;;;;;8.04;100.00;99698.53;5057002;28;20225;-74
2023/01/13 07:39:59;;;;;;;2.65;1.00;;;;;;;8.03;100.00;99702.16;5058341;28;20592;-74
2023/01/13 07:45:11;;;;;;;1.83;0.70;;;;;;;7.93;100.00;99714.25;5062193;28;20216;-75
2023/01/13 07:47:38;;;;;;;1.63;1.05;;;;;;;7.90;100.00;99717.06;5060154;28;20231;-75
2023/01/13 07:50:05;;;;;;;1.60;0.80;;;;;;;7.90;100.00;99719.75;5063255;28;20300;-75
2023/01/13 07:52:32;;;;;;;3.95;0.93;;;;;;;7.89;100.00;99718.88;5065520;28;20448;-75
2023/01/13 07:54:59;;;;;;;4.93;0.80;;;;;;;7.87;100.00;99720.75;5080986;28;20197;-75
2023/01/13 07:57:26;;;;;;;1.95;0.70;;;;;;;7.94;100.00;99714.19;5080223;28;20762;-75
2023/01/13 07:59:53;;;;;;;4.90;1.13;;;;;;;7.99;100.00;99713.97;5079076;28;20262;-74
2023/01/13 08:02:20;;;;;;;4.32;0.73;;;;;;;8.09;100.00;99728.69;5075302;28;20198;-75
2023/01/13 08:04:46;;;;;;;2.83;0.60;;;;;;;8.11;100.00;99736.66;5075376;28;20222;-75
2023/01/13 08:07:13;;;;;;;2.53;0.95;;;;;;;8.15;100.00;99739.13;5075931;28;20228;-69
2023/01/13 08:09:39;;;;;;;1.98;1.20;;;;;;;8.65;100.00;99756.53;5072890;28;20196;-69
2023/01/13 08:14:52;;;;;;;8.30;4.82;;;;;;;8.70;100.00;99764.34;5075286;28;20195;-75
2023/01/13 08:17:19;;;;;;;1.58;0.60;;;;;;;8.55;100.00;99769.53;5075026;28;20227;-75
2023/01/13 08:19:46;;;;;;;2.75;0.70;;;;;;;8.45;100.00;99753.91;5074162;28;20218;-74
2023/01/13 08:22:12;;;;;;;5.88;0.90;;;;;;;8.43;100.00;99763.84;5075058;28;20196;-75
2023/01/13 08:24:39;;;;;;;1.55;0.70;;;;;;;8.39;100.00;99760.44;5056855;28;20197;-75
2023/01/13 08:27:06;;;;;;;1.83;0.60;;;;;;;8.44;100.00;99763.78;5072570;28;20212;-76
2023/01/13 08:29:33;;;;;;;2.05;0.50;;;;;;;8.41;100.00;99766.63;5074516;28;20210;-74
2023/01/13 08:31:59;;;;;;;1.65;0.60;;;;;;;8.47;100.00;99768.13;5057169;28;20196;-76
2023/01/13 08:34:26;;;;;;;1.70;0.93;;;;;;;8.49;100.00;99772.47;5074957;28;20279;-75
2023/01/13 08:36:53;;;;;;;1.20;0.60;;;;;;;8.45;100.00;99778.94;5074363;28;20217;-74
2023/01/13 08:39:19;;;;;;;1.23;0.60;;;;;;;8.52;100.00;99779.50;5056159;28;20206;-74
2023/01/13 08:41:55;;;;;;;4.43;0.75;;;;;;;8.60;100.00;99779.19;5074258;28;20236;-75
2023/01/13 08:44:24;;;;;;;1.50;0.88;;;;;;;8.56;100.00;99787.34;5073994;28;20184;-75
2023/01/13 08:46:50;;;;;;;4.20;0.80;;;;;;;8.63;100.00;99785.25;5074551;28;20314;-76
2023/01/13 08:49:17;;;;;;;1.88;0.80;;;;;;;8.66;100.00;99786.91;5073714;28;20197;-74
2023/01/13 08:51:44;;;;;;;2.97;0.82;;;;;;;8.73;100.00;99794.63;5074279;28;20670;-76
2023/01/13 08:54:10;;;;;;;1.95;0.70;;;;;;;8.74;100.00;99782.06;5071351;28;20653;-76
2023/01/13 08:56:37;;;;;;;2.05;0.65;;;;;;;8.77;100.00;99785.50;5074727;28;20315;-75
2023/01/13 08:59:04;;;;;;;2.10;0.90;;;;;;;8.85;100.00;99785.09;5056087;28;20200;-75
2023/01/13 09:01:32;;;;;;;1.20;0.70;;;;;;;8.87;100.00;99796.66;5060529;28;20223;-75
2023/01/13 09:03:59;;;;;;;2.00;1.00;;;;;;;8.84;100.00;99791.44;5070169;28;20228;-76
2023/01/13 09:06:26;;;;;;;2.10;0.90;;;;;;;8.83;100.00;99784.31;5055849;28;20235;-75
2023/01/13 09:08:52;;;;;;;2.35;0.70;;;;;;;8.85;100.00;99793.16;5073821;28;20209;-74
2023/01/13 09:14:04;;;;;;;4.90;1.00;;;;;;;8.78;100.00;99802.47;5075763;28;20199;-74
2023/01/13 09:16:31;;;;;;;2.67;0.80;;;;;;;8.81;100.00;99807.66;5078613;28;20213;-73
2023/01/13 09:18:59;;;;;;;3.85;1.27;;;;;;;9.24;100.00;99810.09;5077156;28;20228;-75
2023/01/13 09:21:26;;;;;;;2.40;0.80;;;;;;;9.66;100.00;99807.09;5074503;28;20200;-75
2023/01/13 09:23:53;;;;;;;2.58;1.05;;;;;;;10.53;100.00;99796.22;5067973;28;20193;-75
2023/01/13 09:26:21;;;;;;;4.07;0.95;;;;;;;11.19;100.00;99802.44;5075073;28;20227;-75
2023/01/13 09:28:47;;;;;;;2.35;0.85;;;;;;;11.43;100.00;99813.63;5074019;28;20700;-75
2023/01/13 09:31:14;;;;;;;1.67;0.80;;;;;;;11.79;100.00;99824.09;5073901;28;20211;-75
2023/01/13 09:36:26;;;;;;;4.10;0.90;;;;;;;11.65;100.00;99824.03;5074021;28;20696;-74
2023/01/13 09:38:53;;;;;;;2.35;1.08;;;;;;;10.95;100.00;99843.31;5072251;28;20205;-75
2023/01/13 09:44:25;;;;;;;4.95;0.80;;;;;;;10.42;100.00;99844.41;5011235;28;20669;-75
2023/01/13 09:46:56;;;;;;;3.15;0.80;;;;;;;10.72;100.00;99841.88;4995068;28;20321;-74
2023/01/13 09:49:27;;;;;;;2.50;0.90;;;;;;;10.63;100.00;99847.78;5010247;28;20218;-75
2023/01/13 09:51:59;;;;;;;2.08;0.90;;;;;;;10.61;100.00;99839.78;5010522;28;20191;-75
2023/01/13 09:54:31;;;;;;;6.78;1.30;;;;;;;11.45;100.00;99842.25;5001987;28;20191;-75
2023/01/13 09:56:58;;;;;;;4.68;0.93;;;;;;;12.09;100.00;99845.69;5002324;28;20233;-75
2023/01/13 09:59:28;;;;;;;1.95;1.00;;;;;;;12.79;100.00;99844.13;5023768;28;20202;-75
2023/01/13 10:02:02;;;;;;;1.95;0.70;;;;;;;12.89;100.00;99853.41;5016884;28;20218;-76
2023/01/13 10:04:29;;;;;;;2.10;0.80;;;;;;;11.78;100.00;99853.84;5012215;28;20676;-75
2023/01/13 10:07:01;;;;;;;4.20;0.93;;;;;;;11.21;100.00;99854.44;5011272;28;20642;-75
2023/01/13 10:09:33;;;;;;;4.10;1.17;;;;;;;10.94;100.00;99856.84;5010875;28;20285;-75
2023/01/13 10:14:52;;;;;;;79.75;47.60;;;;;;;11.51;100.00;99843.72;5028920;28;20208;-71
2023/01/13 10:17:25;;;;;;;4.95;2.53;;;;;;;11.71;100.00;99839.84;5054384;28;20228;-69
2023/01/13 10:20:01;;;;;;;4.75;2.25;;;;;;;11.28;100.00;99831.56;5072110;28;20635;-69
2023/01/13 10:22:45;;;;;;;6.40;2.00;;;;;;;10.97;100.00;99829.75;5072156;28;20688;-68
2023/01/13 10:25:24;;;;;;;5.80;1.88;;;;;;;11.94;100.00;99833.13;5071920;28;20196;-68
2023/01/13 10:27:53;;;;;;;4.10;1.52;;;;;;;12.66;100.00;99828.69;5071421;28;20228;-68
2023/01/13 10:30:26;;;;;;;5.38;1.58;;;;;;;13.32;100.00;99834.44;5072509;28;20200;-69
2023/01/13 10:32:56;;;;;;;2.25;1.85;;;;;;;13.70;100.00;99834.56;5071844;28;20189;-70
2023/01/13 10:35:54;;;;;;;5.50;1.38;;;;;;;13.74;100.00;99832.50;5059013;28;20215;-70
2023/01/13 10:38:25;;;;;;;2.42;1.10;;;;;;;12.76;100.00;99838.91;5070373;28;20710;-70
2023/01/13 10:40:54;;;;;;;2.95;0.95;;;;;;;13.06;100.00;99831.53;5071934;28;20927;-67
2023/01/13 10:43:20;;;;;;;3.38;1.15;;;;;;;12.86;100.00;99823.84;5072032;28;20612;-70
2023/01/13 10:45:58;;;;;;;4.63;1.25;;;;;;;12.58;100.00;99825.59;5072256;28;20203;-68
2023/01/13 10:48:34;;;;;;;2.95;1.05;;;;;;;12.11;100.00;99821.31;5071280;28;20228;-68
2023/01/13 10:51:10;;;;;;;2.42;0.98;;;;;;;11.97;100.00;99815.88;5071812;28;20215;-69
2023/01/13 10:53:46;;;;;;;3.30;1.38;;;;;;;12.89;100.00;99815.56;5071531;28;20204;-68
2023/01/13 10:56:17;;;;;;;6.25;1.35;;;;;;;12.66;100.00;99819.69;5070348;28;20581;-69
2023/01/13 10:58:43;;;;;;;5.03;1.30;;;;;;;12.24;100.00;99830.41;5068579;28;20192;-70
2023/01/13 11:01:20;;;;;;;4.63;1.40;;;;;;;12.48;100.00;99829.81;5071977;28;20197;-69
2023/01/13 11:03:47;;;;;;;4.55;1.50;;;;;;;11.75;100.00;99833.31;5071715;28;20230;-69
2023/01/13 11:06:20;;;;;;;5.30;1.60;;;;;;;11.53;100.00;99832.84;5070060;28;20209;-73
2023/01/13 11:08:50;;;;;;;3.20;0.98;;;;;;;11.33;100.00;99836.69;5072097;28;20272;-72
2023/01/13 11:11:43;;;;;;;2.80;0.85;;;;;;;12.06;100.00;99842.31;5071756;28;20552;-73
2023/01/13 11:17:16;;;;;;;5.38;1.30;;;;;;;12.74;100.00;99820.09;5070090;28;20218;-72
2023/01/13 11:19:47;;;;;;;2.83;1.38;;;;;;;12.97;100.00;99824.03;5087831;28;20275;-71
2023/01/13 11:22:19;;;;;;;2.00;0.95;;;;;;;12.69;100.00;99822.22;5073685;28;20590;-73
2023/01/13 11:24:53;;;;;;;2.20;0.93;;;;;;;12.84;100.00;99832.03;5059428;28;20192;-72
2023/01/13 11:27:24;;;;;;;5.00;2.00;;;;;;;12.90;100.00;99838.91;5087512;28;20227;-73
2023/01/13 11:30:02;;;;;;;4.57;1.25;;;;;;;12.93;100.00;99828.78;5072761;28;20555;-72
2023/01/13 11:32:33;;;;;;;4.38;1.10;;;;;;;12.87;100.00;99833.69;5089430;28;20288;-74
2023/01/13 11:35:04;;;;;;;18.13;9.25;;;;;;;12.98;100.00;99833.88;5092915;28;20188;-69
2023/01/13 11:37:34;;;;;;;8.05;4.95;;;;;;;13.59;100.00;99831.72;5091840;28;20227;-74
2023/01/13 11:40:06;;;;;;;4.03;1.83;;;;;;;13.48;100.00;99827.03;5085814;28;20199;-71
2023/01/13 11:42:40;;;;;;;4.20;1.23;;;;;;;13.63;94.88;99851.31;5076365;28;20235;-74
2023/01/13 11:45:17;;;;;;;3.40;1.40;;;;;;;13.61;97.22;99851.41;5072228;28;20189;-72
2023/01/13 11:47:46;;;;;;;3.15;1.00;;;;;;;13.31;99.80;99857.00;5055909;28;20600;-72
2023/01/13 11:50:17;;;;;;;3.25;1.15;;;;;;;13.60;97.00;99855.09;5104087;28;20207;-71
2023/01/13 11:52:55;;;;;;;3.03;0.90;;;;;;;13.79;92.46;99861.97;5066747;28;20206;-72
2023/01/13 11:55:33;;;;;;;3.00;1.20;;;;;;;13.21;97.04;99864.84;5084811;28;20578;-73
2023/01/13 11:58:19;;;;;;;4.95;1.10;;;;;;;13.75;93.04;99866.75;5091579;28;20228;-73
2023/01/13 12:01:02;;;;;;;3.88;1.20;;;;;;;14.03;88.28;99870.28;5073026;28;20203;-71
2023/01/13 12:03:35;;;;;;;3.92;1.33;;;;;;;12.84;96.77;99858.19;5073988;28;20188;-72
2023/01/13 12:06:19;;;;;;;7.93;1.65;;;;;;;12.20;100.00;99866.63;5075527;28;20288;-72
2023/01/13 12:09:01;;;;;;;7.90;1.60;;;;;;;11.63;100.00;99872.66;5089174;28;20235;-72
2023/01/13 12:12:18;;;;;;;3.42;1.02;;;;;;;11.61;100.00;99862.94;5095355;28;20184;-73
2023/01/13 12:14:33;;;;;;;4.82;1.38;;;;;;;12.20;100.00;99861.22;5095324;28;20200;-73
2023/01/13 12:17:03;;;;;;;4.90;1.38;;;;;;;11.86;100.00;99865.91;5080820;28;20310;-73
2023/01/13 12:19:31;;;;;;;4.65;1.40;;;;;;;11.95;100.00;99850.19;5074862;28;20204;-72
2023/01/13 12:22:14;;;;;;;4.70;1.35;;;;;;;12.65;100.00;99848.56;5074787;28;20283;-72
2023/01/13 12:24:48;;;;;;;3.63;1.50;;;;;;;12.49;100.00;99845.09;5074091;28;20205;-73
2023/01/13 12:27:24;;;;;;;5.78;1.50;;;;;;;11.62;100.00;99853.88;5077023;28;20220;-73
2023/01/13 12:29:54;;;;;;;5.07;1.38;;;;;;;11.19;100.00;99842.84;5078333;28;20649;-74